sensor_id;sensor_type;location;lat;lon;timestamp;temperature;humidity
48454;DHT22;34261;55.678;12.464;2024-03-02T00:00:11;8.10;99.90
48454;DHT22;34261;55.678;12.464;2024-03-02T00:02:45;8.10;99.90
48454;DHT22;34261;55.678;12.464;2024-03-02T00:05:16;8.10;99.90
48454;DHT22;34261;55.678;12.464;2024-03-02T00:07:45;8.20;99.90
48454;DHT22;34261;55.678;12.464;2024-03-02T00:10:16;8.20;99.90
48454;DHT22;34261;55.678;12.464;2024-03-02T00:12:42;8.20;99.90
48454;DHT22;34261;55.678;12.464;2024-03-02T00:18:05;8.30;99.90
48454;DHT22;34261;55.678;12.464;2024-03-02T00:20:32;8.20;99.90
48454;DHT22;34261;55.678;12.464;2024-03-02T00:23:08;8.20;99.90
48454;DHT22;34261;55.678;12.464;2024-03-02T00:28:05;8.20;99.90
48454;DHT22;34261;55.678;12.464;2024-03-02T00:34:02;8.20;99.90
48454;DHT22;34261;55.678;12.464;2024-03-02T00:36:33;8.20;99.90
48454;DHT22;34261;55.678;12.464;2024-03-02T00:39:01;8.20;99.90
48454;DHT22;34261;55.678;12.464;2024-03-02T00:41:30;8.10;99.90
48454;DHT22;34261;55.678;12.464;2024-03-02T00:44:00;8.20;99.90
48454;DHT22;34261;55.678;12.464;2024-03-02T00:46:37;8.20;99.90
48454;DHT22;34261;55.678;12.464;2024-03-02T00:49:04;8.20;99.90
48454;DHT22;34261;55.678;12.464;2024-03-02T00:51:32;8.20;99.90
48454;DHT22;34261;55.678;12.464;2024-03-02T00:54:00;8.30;99.90
48454;DHT22;34261;55.678;12.464;2024-03-02T00:56:26;8.30;99.90
48454;DHT22;34261;55.678;12.464;2024-03-02T00:58:53;8.30;99.90
48454;DHT22;34261;55.678;12.464;2024-03-02T01:01:19;8.30;99.90
48454;DHT22;34261;55.678;12.464;2024-03-02T01:03:48;8.40;99.90
48454;DHT22;34261;55.678;12.464;2024-03-02T01:06:15;8.40;99.90
48454;DHT22;34261;55.678;12.464;2024-03-02T01:08:42;8.40;99.90
48454;DHT22;34261;55.678;12.464;2024-03-02T01:11:09;8.40;99.90
48454;DHT22;34261;55.678;12.464;2024-03-02T01:13:35;8.40;99.90
48454;DHT22;34261;55.678;12.464;2024-03-02T01:16:02;8.40;99.90
48454;DHT22;34261;55.678;12.464;2024-03-02T01:18:28;8.40;99.90
48454;DHT22;34261;55.678;12.464;2024-03-02T01:20:54;8.40;99.90
48454;DHT22;34261;55.678;12.464;2024-03-02T01:23:23;8.40;99.90
48454;DHT22;34261;55.678;12.464;2024-03-02T01:25:53;8.50;99.90
48454;DHT22;34261;55.678;12.464;2024-03-02T01:28:20;8.50;99.90
48454;DHT22;34261;55.678;12.464;2024-03-02T01:30:48;8.50;99.90
48454;DHT22;34261;55.678;12.464;2024-03-02T01:33:14;8.50;99.90
48454;DHT22;34261;55.678;12.464;2024-03-02T01:35:40;8.50;99.90
48454;DHT22;34261;55.678;12.464;2024-03-02T01:38:09;8.50;99.90
48454;DHT22;34261;55.678;12.464;2024-03-02T01:40:37;8.50;99.90
48454;DHT22;34261;55.678;12.464;2024-03-02T01:43:07;8.50;99.90
48454;DHT22;34261;55.678;12.464;2024-03-02T01:45:34;8.50;99.90
48454;DHT22;34261;55.678;12.464;2024-03-02T01:48:01;8.50;99.90
48454;DHT22;34261;55.678;12.464;2024-03-02T01:50:29;8.50;99.90
48454;DHT22;34261;55.678;12.464;2024-03-02T01:52:56;8.40;99.90
48454;DHT22;34261;55.678;12.464;2024-03-02T01:55:22;8.40;99.90
48454;DHT22;34261;55.678;12.464;2024-03-02T01:57:56;8.40;99.90
48454;DHT22;34261;55.678;12.464;2024-03-02T02:00:26;8.40;99.90
48454;DHT22;34261;55.678;12.464;2024-03-02T02:02:59;8.40;99.90
48454;DHT22;34261;55.678;12.464;2024-03-02T02:05:36;8.30;99.90
48454;DHT22;34261;55.678;12.464;2024-03-02T02:08:12;8.40;99.90
48454;DHT22;34261;55.678;12.464;2024-03-02T02:10:37;8.30;99.90
48454;DHT22;34261;55.678;12.464;2024-03-02T02:15:42;8.30;99.90
48454;DHT22;34261;55.678;12.464;2024-03-02T02:18:08;8.30;99.90
48454;DHT22;34261;55.678;12.464;2024-03-02T02:20:33;8.30;99.90
48454;DHT22;34261;55.678;12.464;2024-03-02T02:23:18;8.30;99.90
48454;DHT22;34261;55.678;12.464;2024-03-02T02:25:44;8.30;99.90
48454;DHT22;34261;55.678;12.464;2024-03-02T02:28:10;8.30;99.90
48454;DHT22;34261;55.678;12.464;2024-03-02T02:30:35;8.30;99.90
48454;DHT22;34261;55.678;12.464;2024-03-02T03:52:46;8.50;99.90
48454;DHT22;34261;55.678;12.464;2024-03-02T03:55:11;8.60;99.90
48454;DHT22;34261;55.678;12.464;2024-03-02T03:57:37;8.60;99.90
48454;DHT22;34261;55.678;12.464;2024-03-02T04:00:03;8.60;99.90
48454;DHT22;34261;55.678;12.464;2024-03-02T04:02:29;8.60;99.90
48454;DHT22;34261;55.678;12.464;2024-03-02T04:04:56;8.60;99.90
48454;DHT22;34261;55.678;12.464;2024-03-02T04:07:22;8.60;99.90
48454;DHT22;34261;55.678;12.464;2024-03-02T04:09:48;8.60;99.90
48454;DHT22;34261;55.678;12.464;2024-03-02T04:12:14;8.60;99.90
48454;DHT22;34261;55.678;12.464;2024-03-02T04:14:40;8.60;99.90
48454;DHT22;34261;55.678;12.464;2024-03-02T04:17:07;8.60;99.90
48454;DHT22;34261;55.678;12.464;2024-03-02T04:19:33;8.60;99.90
48454;DHT22;34261;55.678;12.464;2024-03-02T04:21:59;8.60;99.90
48454;DHT22;34261;55.678;12.464;2024-03-02T04:24:25;8.60;99.90
48454;DHT22;34261;55.678;12.464;2024-03-02T04:26:51;8.60;99.90
48454;DHT22;34261;55.678;12.464;2024-03-02T04:29:17;8.60;99.90
48454;DHT22;34261;55.678;12.464;2024-03-02T04:31:43;8.60;99.90
48454;DHT22;34261;55.678;12.464;2024-03-02T04:34:08;8.60;99.90
48454;DHT22;34261;55.678;12.464;2024-03-02T04:36:34;8.60;99.90
48454;DHT22;34261;55.678;12.464;2024-03-02T04:39:00;8.60;99.90
48454;DHT22;34261;55.678;12.464;2024-03-02T04:41:26;8.60;99.90
48454;DHT22;34261;55.678;12.464;2024-03-02T04:43:52;8.50;99.90
48454;DHT22;34261;55.678;12.464;2024-03-02T04:46:17;8.50;99.90
48454;DHT22;34261;55.678;12.464;2024-03-02T04:48:43;8.60;99.90
48454;DHT22;34261;55.678;12.464;2024-03-02T04:51:10;8.50;99.90
48454;DHT22;34261;55.678;12.464;2024-03-02T04:53:36;8.50;99.90
48454;DHT22;34261;55.678;12.464;2024-03-02T04:56:02;8.60;99.90
48454;DHT22;34261;55.678;12.464;2024-03-02T04:58:54;8.60;99.90
48454;DHT22;34261;55.678;12.464;2024-03-02T05:01:21;8.60;99.90
48454;DHT22;34261;55.678;12.464;2024-03-02T05:03:46;8.60;99.90
48454;DHT22;34261;55.678;12.464;2024-03-02T05:06:12;8.60;99.90
48454;DHT22;34261;55.678;12.464;2024-03-02T05:08:38;8.60;99.90
48454;DHT22;34261;55.678;12.464;2024-03-02T05:11:04;8.60;99.90
48454;DHT22;34261;55.678;12.464;2024-03-02T05:13:48;8.70;99.90
48454;DHT22;34261;55.678;12.464;2024-03-02T05:16:14;8.60;99.90
48454;DHT22;34261;55.678;12.464;2024-03-02T05:18:39;8.70;99.90
48454;DHT22;34261;55.678;12.464;2024-03-02T05:21:05;8.70;99.90
48454;DHT22;34261;55.678;12.464;2024-03-02T05:23:31;8.70;99.90
48454;DHT22;34261;55.678;12.464;2024-03-02T05:25:57;8.70;99.90
48454;DHT22;34261;55.678;12.464;2024-03-02T05:28:23;8.70;99.90
48454;DHT22;34261;55.678;12.464;2024-03-02T05:30:48;8.70;99.90
48454;DHT22;34261;55.678;12.464;2024-03-02T05:33:15;8.70;99.90
48454;DHT22;34261;55.678;12.464;2024-03-02T05:35:40;8.70;99.90
48454;DHT22;34261;55.678;12.464;2024-03-02T05:38:06;8.80;99.90
48454;DHT22;34261;55.678;12.464;2024-03-02T05:40:32;8.80;99.90
48454;DHT22;34261;55.678;12.464;2024-03-02T05:42:58;8.80;99.90
48454;DHT22;34261;55.678;12.464;2024-03-02T05:45:23;8.80;99.90
48454;DHT22;34261;55.678;12.464;2024-03-02T05:47:49;8.90;99.90
48454;DHT22;34261;55.678;12.464;2024-03-02T05:50:15;8.90;99.90
48454;DHT22;34261;55.678;12.464;2024-03-02T05:52:41;8.80;99.90
48454;DHT22;34261;55.678;12.464;2024-03-02T05:55:07;8.80;99.90
48454;DHT22;34261;55.678;12.464;2024-03-02T05:57:33;8.80;99.90
48454;DHT22;34261;55.678;12.464;2024-03-02T06:00:15;8.90;99.90
48454;DHT22;34261;55.678;12.464;2024-03-02T06:02:42;8.90;99.90
48454;DHT22;34261;55.678;12.464;2024-03-02T06:05:08;8.90;99.90
48454;DHT22;34261;55.678;12.464;2024-03-02T06:07:34;8.90;99.90
48454;DHT22;34261;55.678;12.464;2024-03-02T06:10:00;8.90;99.90
48454;DHT22;34261;55.678;12.464;2024-03-02T06:12:26;8.90;99.90
48454;DHT22;34261;55.678;12.464;2024-03-02T06:14:51;8.90;99.90
48454;DHT22;34261;55.678;12.464;2024-03-02T06:17:17;9.00;99.90
48454;DHT22;34261;55.678;12.464;2024-03-02T06:19:45;9.00;99.90
48454;DHT22;34261;55.678;12.464;2024-03-02T06:22:11;8.90;99.90
48454;DHT22;34261;55.678;12.464;2024-03-02T06:24:37;8.90;99.90
48454;DHT22;34261;55.678;12.464;2024-03-02T06:27:05;9.00;99.90
48454;DHT22;34261;55.678;12.464;2024-03-02T06:29:33;9.00;99.90
48454;DHT22;34261;55.678;12.464;2024-03-02T06:31:59;9.00;99.90
48454;DHT22;34261;55.678;12.464;2024-03-02T06:34:25;9.00;99.90
48454;DHT22;34261;55.678;12.464;2024-03-02T06:36:51;9.10;99.90
48454;DHT22;34261;55.678;12.464;2024-03-02T06:39:17;9.00;99.90
48454;DHT22;34261;55.678;12.464;2024-03-02T06:41:42;9.00;99.90
48454;DHT22;34261;55.678;12.464;2024-03-02T06:44:08;9.00;99.90
48454;DHT22;34261;55.678;12.464;2024-03-02T06:46:34;9.10;99.90
48454;DHT22;34261;55.678;12.464;2024-03-02T06:49:00;9.10;99.90
48454;DHT22;34261;55.678;12.464;2024-03-02T06:51:28;9.10;99.90
48454;DHT22;34261;55.678;12.464;2024-03-02T06:53:53;9.20;99.90
48454;DHT22;34261;55.678;12.464;2024-03-02T06:56:19;9.20;99.90
48454;DHT22;34261;55.678;12.464;2024-03-02T06:58:45;9.20;99.90
48454;DHT22;34261;55.678;12.464;2024-03-02T07:01:11;9.30;99.90
48454;DHT22;34261;55.678;12.464;2024-03-02T07:03:36;9.30;99.90
48454;DHT22;34261;55.678;12.464;2024-03-02T07:06:06;9.30;99.90
48454;DHT22;34261;55.678;12.464;2024-03-02T07:08:31;9.30;99.90
48454;DHT22;34261;55.678;12.464;2024-03-02T07:10:57;9.30;99.90
48454;DHT22;34261;55.678;12.464;2024-03-02T07:13:23;9.20;99.90
48454;DHT22;34261;55.678;12.464;2024-03-02T07:15:49;9.30;99.90
48454;DHT22;34261;55.678;12.464;2024-03-02T07:18:30;9.30;99.90
48454;DHT22;34261;55.678;12.464;2024-03-02T07:20:56;9.20;99.90
48454;DHT22;34261;55.678;12.464;2024-03-02T07:23:26;9.20;99.90
48454;DHT22;34261;55.678;12.464;2024-03-02T07:25:53;9.30;99.90
48454;DHT22;34261;55.678;12.464;2024-03-02T07:28:22;9.30;99.90
48454;DHT22;34261;55.678;12.464;2024-03-02T07:31:01;9.30;99.90
48454;DHT22;34261;55.678;12.464;2024-03-02T07:33:27;9.30;99.90
48454;DHT22;34261;55.678;12.464;2024-03-02T07:35:54;9.30;99.90
48454;DHT22;34261;55.678;12.464;2024-03-02T07:38:21;9.30;99.90
48454;DHT22;34261;55.678;12.464;2024-03-02T07:40:48;9.30;99.90
48454;DHT22;34261;55.678;12.464;2024-03-02T07:43:16;9.30;99.90
48454;DHT22;34261;55.678;12.464;2024-03-02T07:45:42;9.30;99.90
48454;DHT22;34261;55.678;12.464;2024-03-02T07:48:08;9.30;99.90
48454;DHT22;34261;55.678;12.464;2024-03-02T07:50:34;9.40;99.90
48454;DHT22;34261;55.678;12.464;2024-03-02T07:53:01;9.30;99.90
48454;DHT22;34261;55.678;12.464;2024-03-02T07:55:27;9.30;99.90
48454;DHT22;34261;55.678;12.464;2024-03-02T07:57:56;9.40;99.90
48454;DHT22;34261;55.678;12.464;2024-03-02T08:00:23;9.40;99.90
48454;DHT22;34261;55.678;12.464;2024-03-02T08:02:49;9.40;99.90
48454;DHT22;34261;55.678;12.464;2024-03-02T09:17:13;9.40;99.90
48454;DHT22;34261;55.678;12.464;2024-03-02T09:19:39;9.40;99.90
48454;DHT22;34261;55.678;12.464;2024-03-02T09:22:07;9.40;99.90
48454;DHT22;34261;55.678;12.464;2024-03-02T09:24:33;9.30;99.90
48454;DHT22;34261;55.678;12.464;2024-03-02T09:26:59;9.30;99.90
48454;DHT22;34261;55.678;12.464;2024-03-02T09:29:25;9.40;99.90
48454;DHT22;34261;55.678;12.464;2024-03-02T09:31:51;9.30;99.90
48454;DHT22;34261;55.678;12.464;2024-03-02T09:34:17;9.40;99.90
48454;DHT22;34261;55.678;12.464;2024-03-02T09:36:43;9.30;99.90
48454;DHT22;34261;55.678;12.464;2024-03-02T09:39:09;9.30;99.90
48454;DHT22;34261;55.678;12.464;2024-03-02T09:42:03;9.40;99.90
48454;DHT22;34261;55.678;12.464;2024-03-02T10:21:33;9.40;99.90
48454;DHT22;34261;55.678;12.464;2024-03-02T14:26:11;9.30;99.90
48454;DHT22;34261;55.678;12.464;2024-03-02T14:28:37;9.30;99.90
48454;DHT22;34261;55.678;12.464;2024-03-02T14:31:03;9.30;99.90
48454;DHT22;34261;55.678;12.464;2024-03-02T14:33:28;9.30;99.90
48454;DHT22;34261;55.678;12.464;2024-03-02T14:35:54;9.30;99.90
48454;DHT22;34261;55.678;12.464;2024-03-02T14:38:22;9.30;99.90
48454;DHT22;34261;55.678;12.464;2024-03-02T14:40:48;9.20;99.90
48454;DHT22;34261;55.678;12.464;2024-03-02T14:43:14;9.20;99.90
48454;DHT22;34261;55.678;12.464;2024-03-02T14:45:39;9.20;99.90
48454;DHT22;34261;55.678;12.464;2024-03-02T14:48:05;9.30;99.90
48454;DHT22;34261;55.678;12.464;2024-03-02T14:50:31;9.40;99.90
48454;DHT22;34261;55.678;12.464;2024-03-02T14:52:57;9.50;99.90
48454;DHT22;34261;55.678;12.464;2024-03-02T14:55:23;9.50;99.90
48454;DHT22;34261;55.678;12.464;2024-03-02T14:57:49;9.50;99.90
48454;DHT22;34261;55.678;12.464;2024-03-02T15:00:16;9.60;99.90
48454;DHT22;34261;55.678;12.464;2024-03-02T15:02:42;9.70;99.90
48454;DHT22;34261;55.678;12.464;2024-03-02T15:05:08;9.60;99.90
48454;DHT22;34261;55.678;12.464;2024-03-02T15:07:33;9.70;99.90
48454;DHT22;34261;55.678;12.464;2024-03-02T15:09:59;9.70;99.90
48454;DHT22;34261;55.678;12.464;2024-03-02T15:12:25;9.70;99.90
48454;DHT22;34261;55.678;12.464;2024-03-02T15:14:51;9.70;99.90
48454;DHT22;34261;55.678;12.464;2024-03-02T15:17:17;9.70;99.90
48454;DHT22;34261;55.678;12.464;2024-03-02T15:19:44;9.70;99.90
48454;DHT22;34261;55.678;12.464;2024-03-02T15:22:10;9.70;99.90
48454;DHT22;34261;55.678;12.464;2024-03-02T15:24:36;9.80;99.90
48454;DHT22;34261;55.678;12.464;2024-03-02T15:27:02;9.80;99.90
48454;DHT22;34261;55.678;12.464;2024-03-02T15:29:31;9.80;99.90
48454;DHT22;34261;55.678;12.464;2024-03-02T16:55:03;9.80;99.90
48454;DHT22;34261;55.678;12.464;2024-03-02T16:57:29;9.80;99.90
48454;DHT22;34261;55.678;12.464;2024-03-02T16:59:55;9.80;99.90
48454;DHT22;34261;55.678;12.464;2024-03-02T17:02:21;9.80;99.90
48454;DHT22;34261;55.678;12.464;2024-03-02T17:04:48;9.80;99.90
48454;DHT22;34261;55.678;12.464;2024-03-02T17:07:14;9.80;99.90
48454;DHT22;34261;55.678;12.464;2024-03-02T17:09:39;9.80;99.90
48454;DHT22;34261;55.678;12.464;2024-03-02T17:12:05;9.80;99.90
48454;DHT22;34261;55.678;12.464;2024-03-02T17:14:31;9.80;99.90
48454;DHT22;34261;55.678;12.464;2024-03-02T17:16:57;9.80;99.90
48454;DHT22;34261;55.678;12.464;2024-03-02T17:19:22;9.80;99.90
48454;DHT22;34261;55.678;12.464;2024-03-02T17:21:48;9.80;99.90
48454;DHT22;34261;55.678;12.464;2024-03-02T17:24:14;9.80;99.90
48454;DHT22;34261;55.678;12.464;2024-03-02T17:26:40;9.70;99.90
48454;DHT22;34261;55.678;12.464;2024-03-02T17:29:06;9.70;99.90
48454;DHT22;34261;55.678;12.464;2024-03-02T17:31:32;9.70;99.90
48454;DHT22;34261;55.678;12.464;2024-03-02T17:33:57;9.70;99.90
48454;DHT22;34261;55.678;12.464;2024-03-02T17:36:23;9.60;99.90
48454;DHT22;34261;55.678;12.464;2024-03-02T17:38:49;9.60;99.90
48454;DHT22;34261;55.678;12.464;2024-03-02T17:41:15;9.60;99.90
48454;DHT22;34261;55.678;12.464;2024-03-02T17:43:40;9.60;99.90
48454;DHT22;34261;55.678;12.464;2024-03-02T17:46:06;9.60;99.90
48454;DHT22;34261;55.678;12.464;2024-03-02T17:48:32;9.60;99.90
48454;DHT22;34261;55.678;12.464;2024-03-02T17:50:58;9.60;99.90
48454;DHT22;34261;55.678;12.464;2024-03-02T17:53:27;9.60;99.90
48454;DHT22;34261;55.678;12.464;2024-03-02T17:55:53;9.60;99.90
48454;DHT22;34261;55.678;12.464;2024-03-02T17:58:19;9.60;99.90
48454;DHT22;34261;55.678;12.464;2024-03-02T18:00:45;9.60;99.90
48454;DHT22;34261;55.678;12.464;2024-03-02T18:03:11;9.60;99.90
48454;DHT22;34261;55.678;12.464;2024-03-02T18:05:37;9.60;99.90
48454;DHT22;34261;55.678;12.464;2024-03-02T18:08:04;9.60;99.90
48454;DHT22;34261;55.678;12.464;2024-03-02T18:10:30;9.50;99.90
48454;DHT22;34261;55.678;12.464;2024-03-02T18:12:58;9.50;99.90
48454;DHT22;34261;55.678;12.464;2024-03-02T18:15:24;9.50;99.90
48454;DHT22;34261;55.678;12.464;2024-03-02T18:17:50;9.50;99.90
48454;DHT22;34261;55.678;12.464;2024-03-02T18:20:16;9.50;99.90
48454;DHT22;34261;55.678;12.464;2024-03-02T18:22:42;9.50;99.90
48454;DHT22;34261;55.678;12.464;2024-03-02T18:25:08;9.60;99.90
48454;DHT22;34261;55.678;12.464;2024-03-02T18:27:36;9.50;99.90
48454;DHT22;34261;55.678;12.464;2024-03-02T18:30:02;9.60;99.90
48454;DHT22;34261;55.678;12.464;2024-03-02T18:32:30;9.60;99.90
48454;DHT22;34261;55.678;12.464;2024-03-02T18:34:58;9.60;99.90
48454;DHT22;34261;55.678;12.464;2024-03-02T18:37:25;9.60;99.90
48454;DHT22;34261;55.678;12.464;2024-03-02T18:39:51;9.60;99.90
48454;DHT22;34261;55.678;12.464;2024-03-02T18:42:20;9.60;99.90
48454;DHT22;34261;55.678;12.464;2024-03-02T18:44:48;9.60;99.90
48454;DHT22;34261;55.678;12.464;2024-03-02T18:47:20;9.70;99.90
48454;DHT22;34261;55.678;12.464;2024-03-02T18:49:52;9.70;99.90
48454;DHT22;34261;55.678;12.464;2024-03-02T18:52:21;9.70;99.90
48454;DHT22;34261;55.678;12.464;2024-03-02T18:54:51;9.70;99.90
48454;DHT22;34261;55.678;12.464;2024-03-02T18:57:18;9.70;99.90
48454;DHT22;34261;55.678;12.464;2024-03-02T18:59:45;9.70;99.90
48454;DHT22;34261;55.678;12.464;2024-03-02T20:19:52;9.80;99.90
48454;DHT22;34261;55.678;12.464;2024-03-02T20:22:18;9.80;99.90
48454;DHT22;34261;55.678;12.464;2024-03-02T20:24:43;9.70;99.90
48454;DHT22;34261;55.678;12.464;2024-03-02T20:27:09;9.70;99.90
48454;DHT22;34261;55.678;12.464;2024-03-02T20:29:35;9.80;99.90
48454;DHT22;34261;55.678;12.464;2024-03-02T20:32:02;9.80;99.90
48454;DHT22;34261;55.678;12.464;2024-03-02T20:34:28;9.80;99.90
48454;DHT22;34261;55.678;12.464;2024-03-02T20:36:54;9.80;99.90
48454;DHT22;34261;55.678;12.464;2024-03-02T20:39:22;9.80;99.90
48454;DHT22;34261;55.678;12.464;2024-03-02T20:41:48;9.80;99.90
48454;DHT22;34261;55.678;12.464;2024-03-02T20:44:14;9.80;99.90
48454;DHT22;34261;55.678;12.464;2024-03-02T20:46:43;9.90;99.90
48454;DHT22;34261;55.678;12.464;2024-03-02T20:49:10;9.90;99.90
48454;DHT22;34261;55.678;12.464;2024-03-02T20:51:37;9.90;99.90
48454;DHT22;34261;55.678;12.464;2024-03-02T20:54:03;9.90;99.90
48454;DHT22;34261;55.678;12.464;2024-03-02T20:56:33;10.00;99.90
48454;DHT22;34261;55.678;12.464;2024-03-02T20:59:04;10.00;99.90
48454;DHT22;34261;55.678;12.464;2024-03-02T21:01:31;10.00;99.90
48454;DHT22;34261;55.678;12.464;2024-03-02T21:03:56;10.00;99.90
48454;DHT22;34261;55.678;12.464;2024-03-02T21:06:22;10.00;99.90
48454;DHT22;34261;55.678;12.464;2024-03-02T21:08:48;10.10;99.90
48454;DHT22;34261;55.678;12.464;2024-03-02T21:11:14;10.00;99.90
48454;DHT22;34261;55.678;12.464;2024-03-02T21:13:41;10.10;99.90
48454;DHT22;34261;55.678;12.464;2024-03-02T21:16:07;10.10;99.90
48454;DHT22;34261;55.678;12.464;2024-03-02T21:18:33;10.10;99.90
48454;DHT22;34261;55.678;12.464;2024-03-02T21:21:00;10.10;99.90
48454;DHT22;34261;55.678;12.464;2024-03-02T21:23:26;10.10;99.90
48454;DHT22;34261;55.678;12.464;2024-03-02T21:25:55;10.10;99.90
48454;DHT22;34261;55.678;12.464;2024-03-02T21:28:21;10.00;99.90
48454;DHT22;34261;55.678;12.464;2024-03-02T21:30:47;10.00;99.90
48454;DHT22;34261;55.678;12.464;2024-03-02T21:33:13;10.00;99.90
48454;DHT22;34261;55.678;12.464;2024-03-02T21:35:39;10.00;99.90
48454;DHT22;34261;55.678;12.464;2024-03-02T21:38:04;10.00;99.90
48454;DHT22;34261;55.678;12.464;2024-03-02T21:40:32;9.90;99.90
48454;DHT22;34261;55.678;12.464;2024-03-02T21:42:59;9.90;99.90
48454;DHT22;34261;55.678;12.464;2024-03-02T21:45:25;9.90;99.90
48454;DHT22;34261;55.678;12.464;2024-03-02T21:47:51;9.80;99.90
48454;DHT22;34261;55.678;12.464;2024-03-02T21:50:18;9.80;99.90
48454;DHT22;34261;55.678;12.464;2024-03-02T21:52:44;9.80;99.90
48454;DHT22;34261;55.678;12.464;2024-03-02T21:55:10;9.80;99.90
48454;DHT22;34261;55.678;12.464;2024-03-02T21:57:38;9.80;99.90
48454;DHT22;34261;55.678;12.464;2024-03-02T22:00:05;9.80;99.90
48454;DHT22;34261;55.678;12.464;2024-03-02T22:02:31;9.80;99.90
48454;DHT22;34261;55.678;12.464;2024-03-02T22:04:56;9.70;99.90
48454;DHT22;34261;55.678;12.464;2024-03-02T22:07:23;9.70;99.90
48454;DHT22;34261;55.678;12.464;2024-03-02T22:09:50;9.70;99.90
48454;DHT22;34261;55.678;12.464;2024-03-02T22:12:15;9.70;99.90
48454;DHT22;34261;55.678;12.464;2024-03-02T22:14:41;9.70;99.90
48454;DHT22;34261;55.678;12.464;2024-03-02T22:17:07;9.70;99.90
48454;DHT22;34261;55.678;12.464;2024-03-02T22:19:33;9.70;99.90
48454;DHT22;34261;55.678;12.464;2024-03-02T22:22:00;9.70;99.90
48454;DHT22;34261;55.678;12.464;2024-03-02T22:24:26;9.70;99.90
48454;DHT22;34261;55.678;12.464;2024-03-02T22:26:54;9.70;99.90
48454;DHT22;34261;55.678;12.464;2024-03-02T22:29:20;9.70;99.90
48454;DHT22;34261;55.678;12.464;2024-03-02T22:31:47;9.80;99.90
48454;DHT22;34261;55.678;12.464;2024-03-02T22:34:12;9.60;99.90
48454;DHT22;34261;55.678;12.464;2024-03-02T22:36:38;9.60;99.90
48454;DHT22;34261;55.678;12.464;2024-03-02T22:39:04;9.70;99.90
48454;DHT22;34261;55.678;12.464;2024-03-02T22:41:30;9.70;99.90
48454;DHT22;34261;55.678;12.464;2024-03-02T22:43:55;9.70;99.90
48454;DHT22;34261;55.678;12.464;2024-03-02T22:46:24;9.80;99.90
48454;DHT22;34261;55.678;12.464;2024-03-02T22:48:50;9.70;99.90
48454;DHT22;34261;55.678;12.464;2024-03-02T22:51:23;9.70;99.90
48454;DHT22;34261;55.678;12.464;2024-03-02T22:53:49;9.70;99.90
48454;DHT22;34261;55.678;12.464;2024-03-02T22:56:15;9.70;99.90
48454;DHT22;34261;55.678;12.464;2024-03-02T22:58:41;9.80;99.90
48454;DHT22;34261;55.678;12.464;2024-03-02T23:01:06;9.80;99.90
48454;DHT22;34261;55.678;12.464;2024-03-02T23:03:36;9.80;99.90
48454;DHT22;34261;55.678;12.464;2024-03-02T23:06:03;9.90;99.90
48454;DHT22;34261;55.678;12.464;2024-03-02T23:08:29;9.90;99.90
48454;DHT22;34261;55.678;12.464;2024-03-02T23:10:55;9.90;99.90
48454;DHT22;34261;55.678;12.464;2024-03-02T23:13:20;10.00;99.90
48454;DHT22;34261;55.678;12.464;2024-03-02T23:15:47;10.00;99.90
48454;DHT22;34261;55.678;12.464;2024-03-02T23:18:13;10.00;99.90
48454;DHT22;34261;55.678;12.464;2024-03-02T23:20:39;10.00;99.90
48454;DHT22;34261;55.678;12.464;2024-03-02T23:23:04;10.00;99.90
48454;DHT22;34261;55.678;12.464;2024-03-02T23:25:32;10.10;99.90
48454;DHT22;34261;55.678;12.464;2024-03-02T23:27:57;10.10;99.90
48454;DHT22;34261;55.678;12.464;2024-03-02T23:30:23;10.10;99.90
48454;DHT22;34261;55.678;12.464;2024-03-02T23:32:51;10.10;99.90
48454;DHT22;34261;55.678;12.464;2024-03-02T23:35:17;10.10;99.90
48454;DHT22;34261;55.678;12.464;2024-03-02T23:37:43;10.10;99.90
48454;DHT22;34261;55.678;12.464;2024-03-02T23:40:09;10.10;99.90
48454;DHT22;34261;55.678;12.464;2024-03-02T23:42:42;10.10;99.90
48454;DHT22;34261;55.678;12.464;2024-03-02T23:45:10;10.10;99.90
48454;DHT22;34261;55.678;12.464;2024-03-02T23:47:37;10.10;99.90
48454;DHT22;34261;55.678;12.464;2024-03-02T23:50:04;10.00;99.90
48454;DHT22;34261;55.678;12.464;2024-03-02T23:52:30;10.00;99.90
48454;DHT22;34261;55.678;12.464;2024-03-02T23:54:55;10.00;99.90
48454;DHT22;34261;55.678;12.464;2024-03-02T23:57:22;9.90;99.90
48454;DHT22;34261;55.678;12.464;2024-03-02T23:59:48;9.90;99.90
